createdAt,value
2019-02-16T00:00:09.808Z,5.55
2019-02-16T00:03:17.672Z,5.62
2019-02-16T00:06:24.204Z,5.58
2019-02-16T00:09:30.449Z,5.52
2019-02-16T00:12:36.911Z,5.52
2019-02-16T00:15:43.744Z,5.52
2019-02-16T00:18:50.192Z,5.54
2019-02-16T00:21:56.835Z,5.51
2019-02-16T00:25:03.247Z,5.50
2019-02-16T00:28:09.690Z,5.46
2019-02-16T00:31:16.239Z,3.80
2019-02-16T00:34:22.583Z,5.46
2019-02-16T00:37:29.014Z,5.44
2019-02-16T00:40:35.262Z,5.48
2019-02-16T00:43:41.840Z,5.45
2019-02-16T00:46:48.572Z,5.53
2019-02-16T00:49:55.142Z,5.51
2019-02-16T00:53:01.472Z,5.41
2019-02-16T00:56:07.800Z,5.41
2019-02-16T00:59:14.169Z,5.44
2019-02-16T01:02:20.555Z,5.42
2019-02-16T01:05:27.109Z,5.44
2019-02-16T01:08:33.476Z,5.38
2019-02-16T01:11:39.931Z,5.39
2019-02-16T01:14:46.272Z,5.39
2019-02-16T01:17:52.897Z,5.38
2019-02-16T01:20:59.122Z,5.43
2019-02-16T01:24:05.544Z,5.38
2019-02-16T01:27:11.872Z,5.27
2019-02-16T01:30:18.228Z,5.22
2019-02-16T01:33:24.593Z,5.20
2019-02-16T01:36:30.868Z,5.16
2019-02-16T01:39:37.186Z,5.12
2019-02-16T01:42:43.439Z,5.02
2019-02-16T01:45:49.775Z,4.99
2019-02-16T01:48:56.131Z,4.97
2019-02-16T01:52:02.421Z,4.96
2019-02-16T01:55:10.542Z,4.98
2019-02-16T01:58:16.918Z,4.89
2019-02-16T02:01:23.617Z,4.98
2019-02-16T02:04:29.889Z,4.93
2019-02-16T02:07:36.242Z,4.77
2019-02-16T02:10:42.504Z,4.79
2019-02-16T02:13:48.919Z,4.65
2019-02-16T02:16:55.214Z,4.62
2019-02-16T02:20:01.702Z,4.59
2019-02-16T02:23:08.054Z,4.52
2019-02-16T02:26:14.394Z,4.55
2019-02-16T02:29:21.078Z,4.63
2019-02-16T02:32:27.443Z,4.56
2019-02-16T02:35:33.821Z,4.51
2019-02-16T02:38:40.148Z,4.62
2019-02-16T02:41:46.606Z,4.67
2019-02-16T02:44:52.964Z,4.61
2019-02-16T02:47:59.317Z,4.59
2019-02-16T02:51:05.617Z,4.52
2019-02-16T02:54:11.980Z,4.56
2019-02-16T02:57:18.339Z,4.52
2019-02-16T03:00:24.726Z,4.48
2019-02-16T03:03:31.000Z,4.54
2019-02-16T03:06:37.343Z,4.52
2019-02-16T03:09:43.715Z,4.49
2019-02-16T03:12:50.066Z,4.40
2019-02-16T03:15:56.419Z,4.44
2019-02-16T03:19:02.748Z,4.43
2019-02-16T03:22:09.168Z,4.48
2019-02-16T03:25:15.507Z,4.55
2019-02-16T03:28:38.063Z,4.48
2019-02-16T03:32:09.600Z,4.40
2019-02-16T03:36:09.213Z,4.49
2019-02-16T03:39:18.636Z,4.33
2019-02-16T03:42:25.027Z,4.50
2019-02-16T03:45:31.434Z,4.29
2019-02-16T03:48:37.810Z,4.31
2019-02-16T03:51:44.137Z,4.39
2019-02-16T03:54:50.435Z,4.31
2019-02-16T03:57:56.747Z,4.32
2019-02-16T04:01:03.079Z,4.34
2019-02-16T04:04:09.326Z,4.24
2019-02-16T04:07:15.694Z,4.25
2019-02-16T04:10:21.957Z,4.40
2019-02-16T04:13:28.284Z,4.31
2019-02-16T04:16:34.720Z,4.20
2019-02-16T04:19:41.076Z,4.13
2019-02-16T04:22:47.455Z,4.17
2019-02-16T04:25:53.809Z,4.22
2019-02-16T04:29:00.147Z,4.05
2019-02-16T04:32:06.441Z,3.98
2019-02-16T04:35:12.698Z,4.10
2019-02-16T04:38:18.962Z,4.22
2019-02-16T04:41:25.442Z,3.95
2019-02-16T04:44:31.864Z,3.98
2019-02-16T04:47:38.139Z,4.03
2019-02-16T04:50:44.730Z,4.09
2019-02-16T04:53:51.205Z,3.93
2019-02-16T04:56:57.742Z,3.83
2019-02-16T05:00:04.268Z,3.94
2019-02-16T05:03:11.846Z,4.03
2019-02-16T05:06:19.691Z,3.80
2019-02-16T05:09:26.045Z,3.85
2019-02-16T05:12:32.426Z,3.59
2019-02-16T05:15:38.888Z,3.83
2019-02-16T05:18:45.364Z,3.82
2019-02-16T05:21:51.996Z,3.79
2019-02-16T05:24:58.438Z,3.77
2019-02-16T05:28:04.808Z,3.79
2019-02-16T05:31:11.236Z,3.81
2019-02-16T05:34:20.499Z,3.83
2019-02-16T05:37:26.892Z,3.82
2019-02-16T05:40:33.286Z,3.80
2019-02-16T05:43:39.676Z,3.85
2019-02-16T05:46:46.120Z,3.83
2019-02-16T05:49:52.387Z,3.76
2019-02-16T05:52:58.733Z,3.86
2019-02-16T05:56:05.303Z,3.90
2019-02-16T05:59:12.537Z,3.91
2019-02-16T06:02:18.886Z,3.84
2019-02-16T06:05:25.215Z,3.74
2019-02-16T06:08:31.607Z,3.79
2019-02-16T06:11:38.507Z,3.70
2019-02-16T06:14:44.926Z,3.63
2019-02-16T06:17:51.298Z,3.70
2019-02-16T06:20:57.820Z,3.69
2019-02-16T06:24:04.256Z,3.68
2019-02-16T06:27:10.669Z,3.75
2019-02-16T06:30:17.115Z,3.72
2019-02-16T06:33:23.527Z,3.69
2019-02-16T06:36:48.060Z,3.68
2019-02-16T06:39:54.603Z,3.85
2019-02-16T06:43:01.478Z,3.85
2019-02-16T06:46:08.019Z,3.73
2019-02-16T06:49:18.796Z,3.68
2019-02-16T06:52:25.155Z,3.80
2019-02-16T06:55:39.688Z,3.72
2019-02-16T06:58:46.188Z,3.72
2019-02-16T07:01:52.557Z,3.69
2019-02-16T07:04:58.994Z,3.71
2019-02-16T07:08:05.374Z,3.80
2019-02-16T07:11:11.728Z,3.82
2019-02-16T07:14:18.514Z,3.79
2019-02-16T07:17:47.868Z,3.86
2019-02-16T07:20:54.223Z,3.95
2019-02-16T07:24:00.608Z,3.98
2019-02-16T07:27:06.904Z,4.03
2019-02-16T07:30:13.327Z,4.10
2019-02-16T07:33:19.688Z,4.15
2019-02-16T07:36:26.647Z,4.19
2019-02-16T07:39:32.925Z,4.29
2019-02-16T07:42:57.504Z,4.37
2019-02-16T07:46:10.324Z,4.37
2019-02-16T07:49:23.159Z,4.40
2019-02-16T07:52:35.030Z,4.55
2019-02-16T07:55:48.570Z,4.47
2019-02-16T07:59:11.834Z,4.57
2019-02-16T08:02:31.319Z,4.57
2019-02-16T08:06:11.986Z,4.63
2019-02-16T08:09:37.396Z,4.65
2019-02-16T08:13:10.649Z,4.76
2019-02-16T08:16:46.216Z,4.85
2019-02-16T08:20:14.331Z,4.91
2019-02-16T08:23:40.398Z,5.08
2019-02-16T08:26:56.464Z,5.30
2019-02-16T08:30:23.098Z,5.54
2019-02-16T08:33:37.663Z,5.82
2019-02-16T08:37:06.083Z,5.97
2019-02-16T08:40:34.537Z,6.08
2019-02-16T08:43:56.768Z,6.32
2019-02-16T08:47:16.431Z,6.62
2019-02-16T08:50:46.121Z,6.96
2019-02-16T08:54:09.590Z,7.44
2019-02-16T08:57:25.365Z,7.74
2019-02-16T09:00:49.510Z,7.85
2019-02-16T09:04:15.018Z,7.87
2019-02-16T09:07:35.634Z,7.75
2019-02-16T09:10:54.209Z,7.91
2019-02-16T09:14:25.601Z,7.95
2019-02-16T09:17:52.478Z,8.27
2019-02-16T09:21:18.252Z,8.61
2019-02-16T09:24:48.280Z,8.71
2019-02-16T09:28:04.238Z,8.87
2019-02-16T09:31:16.172Z,8.39
2019-02-16T09:34:35.420Z,8.35
2019-02-16T09:38:03.888Z,8.90
2019-02-16T09:41:38.317Z,8.76
2019-02-16T09:44:59.352Z,9.63
2019-02-16T09:48:14.711Z,9.36
2019-02-16T09:51:31.715Z,9.56
2019-02-16T09:55:06.650Z,9.56
2019-02-16T09:58:28.412Z,9.89
2019-02-16T10:02:00.459Z,10.21
2019-02-16T10:05:26.400Z,9.64
2019-02-16T10:08:48.683Z,9.64
2019-02-16T10:12:11.043Z,10.29
2019-02-16T10:15:51.441Z,9.86
2019-02-16T10:19:13.117Z,9.63
2019-02-16T10:22:36.249Z,9.81
2019-02-16T10:26:00.375Z,10.04
2019-02-16T10:29:26.452Z,10.26
2019-02-16T10:32:52.238Z,10.33
2019-02-16T10:36:07.793Z,10.53
2019-02-16T10:39:39.124Z,10.56
2019-02-16T10:43:16.556Z,10.28
2019-02-16T10:46:30.573Z,10.40
2019-02-16T10:49:54.662Z,10.37
2019-02-16T10:53:24.685Z,9.99
2019-02-16T10:56:43.857Z,9.96
2019-02-16T11:00:08.061Z,10.05
2019-02-16T11:03:32.248Z,9.75
2019-02-16T11:06:57.624Z,10.01
2019-02-16T11:10:14.231Z,9.89
2019-02-16T11:13:38.684Z,10.06
2019-02-16T11:17:12.997Z,9.77
2019-02-16T11:20:41.103Z,9.88
2019-02-16T11:23:57.665Z,9.88
2019-02-16T11:27:12.925Z,9.81
2019-02-16T11:30:44.507Z,9.78
2019-02-16T11:34:03.600Z,9.77
2019-02-16T11:37:25.126Z,9.78
2019-02-16T11:40:56.518Z,9.83
2019-02-16T11:44:21.064Z,9.77
2019-02-16T11:47:45.276Z,9.89
2019-02-16T11:51:15.267Z,9.94
2019-02-16T11:54:55.769Z,10.02
2019-02-16T11:58:25.527Z,10.12
2019-02-16T12:01:44.564Z,10.14
2019-02-16T12:05:31.643Z,10.39
2019-02-16T12:08:56.942Z,10.46
2019-02-16T12:12:40.907Z,10.54
2019-02-16T12:15:57.601Z,10.73
2019-02-16T12:19:31.640Z,10.68
2019-02-16T12:22:46.840Z,10.70
2019-02-16T12:26:13.339Z,10.96
2019-02-16T12:29:37.652Z,10.86
2019-02-16T12:33:00.128Z,11.12
2019-02-16T12:36:22.201Z,11.27
2019-02-16T12:39:56.697Z,11.43
2019-02-16T12:43:24.897Z,11.29
2019-02-16T12:46:49.958Z,11.23
2019-02-16T12:50:17.188Z,11.40
2019-02-16T12:53:31.638Z,11.48
2019-02-16T12:56:59.808Z,11.28
2019-02-16T13:00:27.369Z,11.28
2019-02-16T13:04:08.228Z,11.29
2019-02-16T13:07:43.846Z,11.57
2019-02-16T13:11:02.999Z,11.49
2019-02-16T13:14:22.062Z,11.59
2019-02-16T13:17:47.435Z,11.74
2019-02-16T13:21:12.183Z,11.65
2019-02-16T13:24:30.130Z,11.51
2019-02-16T13:27:50.187Z,11.10
2019-02-16T13:31:23.286Z,10.88
2019-02-16T13:34:50.980Z,10.72
2019-02-16T13:38:06.616Z,10.64
2019-02-16T13:41:28.009Z,10.53
2019-02-16T13:44:47.852Z,10.40
2019-02-16T13:48:13.493Z,10.30
2019-02-16T13:51:26.089Z,10.33
2019-02-16T13:54:49.867Z,10.31
2019-02-16T13:58:33.282Z,10.23
2019-02-16T14:01:58.672Z,10.19
2019-02-16T14:05:14.732Z,10.18
2019-02-16T14:08:29.292Z,10.12
2019-02-16T14:11:43.144Z,10.00
2019-02-16T14:15:04.150Z,9.96
2019-02-16T14:18:10.545Z,9.94
2019-02-16T14:21:17.999Z,10.09
2019-02-16T14:24:42.357Z,9.89
2019-02-16T14:27:48.728Z,9.87
2019-02-16T14:30:55.166Z,9.69
2019-02-16T14:34:01.695Z,9.64
2019-02-16T14:37:26.013Z,9.60
2019-02-16T14:40:33.159Z,9.61
2019-02-16T14:43:39.532Z,9.54
2019-02-16T14:46:46.959Z,9.51
2019-02-16T14:49:53.330Z,9.51
2019-02-16T14:53:00.723Z,9.51
2019-02-16T14:56:07.118Z,9.42
2019-02-16T14:59:13.392Z,9.40
2019-02-16T15:02:20.324Z,9.34
2019-02-16T15:05:27.160Z,9.27
2019-02-16T15:08:33.711Z,9.24
2019-02-16T15:11:40.196Z,9.08
2019-02-16T15:14:46.822Z,9.19
2019-02-16T15:17:53.246Z,9.05
2019-02-16T15:20:59.681Z,9.02
2019-02-16T15:24:08.296Z,8.98
2019-02-16T15:27:15.219Z,9.02
2019-02-16T15:30:21.766Z,8.89
2019-02-16T15:33:29.733Z,8.93
2019-02-16T15:36:36.179Z,8.86
2019-02-16T15:39:43.107Z,8.90
2019-02-16T15:42:50.419Z,8.69
2019-02-16T15:45:58.374Z,8.59
2019-02-16T15:49:04.838Z,8.65
2019-02-16T15:52:11.176Z,8.65
2019-02-16T15:55:18.672Z,8.66
2019-02-16T15:58:25.048Z,8.68
2019-02-16T16:01:31.478Z,8.53
2019-02-16T16:04:38.055Z,8.41
2019-02-16T16:07:47.036Z,8.35
2019-02-16T16:11:18.196Z,8.33
2019-02-16T16:14:50.288Z,8.14
2019-02-16T16:18:24.722Z,7.98
2019-02-16T16:21:49.254Z,8.01
2019-02-16T16:25:13.256Z,7.84
2019-02-16T16:29:00.171Z,7.70
2019-02-16T16:32:19.106Z,7.66
2019-02-16T16:35:44.560Z,7.63
2019-02-16T16:39:13.184Z,7.57
2019-02-16T16:42:54.576Z,7.44
2019-02-16T16:46:10.807Z,7.40
2019-02-16T16:49:45.201Z,7.56
2019-02-16T16:53:22.764Z,7.41
2019-02-16T16:56:38.601Z,7.29
2019-02-16T17:00:07.012Z,7.26
2019-02-16T17:03:32.485Z,7.23
2019-02-16T17:06:55.284Z,7.23
2019-02-16T17:10:35.929Z,7.19
2019-02-16T17:14:16.525Z,7.21
2019-02-16T17:17:39.575Z,7.15
2019-02-16T17:21:02.226Z,7.11
2019-02-16T17:24:15.974Z,7.12
2019-02-16T17:27:40.067Z,7.12
2019-02-16T17:30:55.590Z,7.20
2019-02-16T17:34:24.044Z,7.20
2019-02-16T17:37:52.216Z,6.99
2019-02-16T17:41:16.697Z,7.04
2019-02-16T17:44:42.189Z,7.00
2019-02-16T17:48:04.959Z,6.99
2019-02-16T17:51:20.238Z,7.07
2019-02-16T17:54:39.911Z,6.92
2019-02-16T17:57:58.508Z,6.96
2019-02-16T18:01:27.153Z,6.85
2019-02-16T18:04:54.394Z,6.97
2019-02-16T18:08:34.847Z,6.95
2019-02-16T18:11:49.662Z,6.55
2019-02-16T18:15:11.278Z,6.71
2019-02-16T18:18:28.423Z,6.50
2019-02-16T18:21:52.325Z,6.58
2019-02-16T18:25:16.689Z,6.70
2019-02-16T18:28:57.222Z,6.55
2019-02-16T18:32:13.278Z,6.58
2019-02-16T18:35:39.552Z,6.32
2019-02-16T18:39:08.739Z,6.42
2019-02-16T18:42:37.404Z,6.51
2019-02-16T18:46:01.584Z,6.63
2019-02-16T18:49:33.585Z,6.49
2019-02-16T18:52:51.396Z,6.47
2019-02-16T18:56:22.906Z,6.38
2019-02-16T18:59:48.806Z,6.46
2019-02-16T19:03:05.405Z,6.39
2019-02-16T19:06:35.410Z,6.27
2019-02-16T19:10:00.860Z,6.08
2019-02-16T19:13:27.839Z,6.14
2019-02-16T19:17:05.441Z,6.06
2019-02-16T19:20:30.140Z,5.88
2019-02-16T19:23:43.773Z,5.84
2019-02-16T19:27:16.761Z,5.78
2019-02-16T19:30:31.721Z,5.70
2019-02-16T19:33:57.165Z,5.60
2019-02-16T19:37:34.786Z,5.61
2019-02-16T19:40:59.411Z,5.48
2019-02-16T19:44:37.318Z,5.46
2019-02-16T19:48:18.386Z,5.47
2019-02-16T19:51:52.912Z,5.42
2019-02-16T19:55:04.861Z,5.46
2019-02-16T19:58:29.213Z,5.52
2019-02-16T20:01:50.456Z,5.39
2019-02-16T20:05:07.038Z,5.34
2019-02-16T20:08:30.763Z,5.42
2019-02-16T20:12:14.644Z,5.48
2019-02-16T20:15:45.387Z,5.37
2019-02-16T20:19:10.865Z,5.33
2019-02-16T20:22:44.956Z,5.36
2019-02-16T20:26:12.611Z,5.33
2019-02-16T20:29:27.007Z,5.38
2019-02-16T20:32:44.748Z,5.43
2019-02-16T20:36:09.012Z,5.43
2019-02-16T20:39:40.476Z,5.34
2019-02-16T20:42:55.892Z,5.44
2019-02-16T20:46:24.154Z,5.34
2019-02-16T20:49:48.516Z,5.17
2019-02-16T20:53:12.791Z,5.25
2019-02-16T20:56:28.402Z,5.10
2019-02-16T20:59:49.504Z,5.13
2019-02-16T21:03:16.210Z,5.17
2019-02-16T21:06:51.459Z,5.15
2019-02-16T21:10:07.721Z,4.94
2019-02-16T21:13:31.472Z,5.08
2019-02-16T21:17:08.964Z,5.08
2019-02-16T21:20:44.082Z,5.06
2019-02-16T21:24:08.765Z,5.08
2019-02-16T21:27:39.995Z,5.08
2019-02-16T21:31:07.805Z,5.13
2019-02-16T21:34:37.127Z,4.94
2019-02-16T21:38:03.187Z,4.89
2019-02-16T21:41:16.848Z,4.92
2019-02-16T21:44:38.879Z,4.89
2019-02-16T21:48:04.294Z,4.89
2019-02-16T21:51:28.764Z,5.03
2019-02-16T21:55:00.367Z,4.89
2019-02-16T21:58:18.277Z,4.78
2019-02-16T22:01:43.750Z,4.82
2019-02-16T22:05:11.948Z,4.79
2019-02-16T22:08:33.081Z,4.84
2019-02-16T22:11:58.525Z,4.79
2019-02-16T22:15:05.677Z,4.76
2019-02-16T22:18:12.121Z,4.77
2019-02-16T22:21:18.901Z,4.70
2019-02-16T22:24:25.546Z,4.70
2019-02-16T22:27:31.962Z,4.69
2019-02-16T22:30:38.487Z,4.73
2019-02-16T22:33:45.014Z,4.79
2019-02-16T22:36:51.442Z,4.72
2019-02-16T22:39:57.860Z,4.69
2019-02-16T22:43:04.371Z,4.50
2019-02-16T22:46:10.842Z,4.48
2019-02-16T22:49:17.393Z,4.63
2019-02-16T22:52:23.843Z,4.59
2019-02-16T22:55:30.646Z,4.64
2019-02-16T22:58:38.539Z,4.68
2019-02-16T23:01:45.260Z,4.63
2019-02-16T23:04:54.709Z,4.48
2019-02-16T23:08:01.040Z,4.54
2019-02-16T23:11:11.351Z,4.42
2019-02-16T23:14:17.879Z,4.53
2019-02-16T23:17:24.358Z,4.33
2019-02-16T23:20:30.777Z,4.38
2019-02-16T23:23:40.240Z,4.35
2019-02-16T23:26:46.620Z,4.32
2019-02-16T23:29:54.039Z,4.31
2019-02-16T23:33:00.459Z,4.13
2019-02-16T23:36:08.492Z,4.09
2019-02-16T23:39:15.458Z,4.08
2019-02-16T23:42:21.812Z,3.82
2019-02-16T23:45:28.080Z,3.78
2019-02-16T23:48:37.446Z,3.60
2019-02-16T23:51:47.842Z,3.49
2019-02-16T23:54:54.223Z,3.64
2019-02-16T23:58:00.766Z,3.58
